Time;durP1;ratioP1;P1;durP2;ratioP2;P2;SDS_P1;SDS_P2;PMS_P1;PMS_P2;Temp;Humidity;BMP_temperature;BMP_pressure;BME280_temperature;BME280_humidity;BME280_pressure;Samples;Min_cycle;Max_cycle;Signal;HPM_P1;HPM_P2
2022/07/18 00:00:12;;;;;;;;;;;;;;;;;;1036316;28;19979;-75
2022/07/18 00:00:42;;;;;;;;;;;;;;;;;;1036501;28;19916;-75
2022/07/18 00:01:12;;;;;;;;;;;;;;;;;;1036467;28;20333;-74
2022/07/18 00:01:43;;;;;;;;;;;;;;;;;;1036344;28;20374;-74
2022/07/18 00:02:13;;;;;;;;;;;;;;;;;;1036213;28;19921;-74
2022/07/18 00:02:43;;;;;;;;;;;;;;;;;;1036478;28;19916;-75
2022/07/18 00:03:14;;;;;;;;;;;;;;;;;;1036316;28;19909;-75
2022/07/18 00:03:44;;;;;;;;;;;;;;;;;;1036745;28;19909;-74
2022/07/18 00:04:14;;;;;;;;;;;;;;;;;;1036577;28;20443;-74
2022/07/18 00:04:44;;;;;;;;;;;;;;;;;;1036370;28;19948;-75
2022/07/18 00:05:15;;;;;;;;;;;;;;;;;;1036552;28;19913;-75
2022/07/18 00:05:45;;;;;;;;;;;;;;;;;;1036359;28;19940;-75
2022/07/18 00:06:15;;;;;;;;;;;;;;;;;;1036041;28;19935;-75
2022/07/18 00:06:45;;;;;;;;;;;;;;;;;;1036427;28;19963;-74
2022/07/18 00:07:16;;;;;;;;;;;;;;;;;;1036296;28;19988;-74
2022/07/18 00:07:46;;;;;;;;;;;;;;;;;;1036240;28;20028;-74
2022/07/18 00:08:16;;;;;;;;;;;;;;;;;;1036238;28;20381;-74
2022/07/18 00:08:46;;;;;;;;;;;;;;;;;;1036488;28;19913;-74
2022/07/18 00:09:17;;;;;;;;;;;;;;;;;;1032071;28;19921;-74
2022/07/18 00:09:48;;;;;;;;;;;;;;;;;;1036495;28;20348;-74
2022/07/18 00:10:18;;;;;;;;;;;;;;;;;;1036141;28;19909;-74
2022/07/18 00:10:48;;;;;;;;;;;;;;;;;;1036450;28;19996;-74
2022/07/18 00:11:18;;;;;;;;;;;;;;;;;;1036407;28;19952;-74
2022/07/18 00:11:49;;;;;;;;;;;;;;;;;;1036365;28;20400;-74
2022/07/18 00:12:19;;;;;;;;;;;;;;;;;;1036285;28;19983;-74
2022/07/18 00:12:49;;;;;;;;;;;;;;;;;;1036812;28;19909;-74
2022/07/18 00:13:19;;;;;;;;;;;;;;;;;;1036015;28;21136;-75
2022/07/18 00:13:52;;;;;;;;;;;;;;;;;;1035931;28;19959;-74
2022/07/18 00:14:23;;;;;;;;;;;;;;;;;;1034614;28;19910;-74
2022/07/18 00:14:53;;;;;;;;;;;;;;;;;;1036335;28;19909;-74
2022/07/18 00:15:23;;;;;;;;;;;;;;;;;;1036156;28;20800;-74
2022/07/18 00:15:53;;;;;;;;;;;;;;;;;;1035232;28;19963;-74
2022/07/18 00:16:24;;;;;;;;;;;;;;;;;;1036347;28;19916;-74
2022/07/18 00:16:54;;;;;;;;;;;;;;;;;;1035582;28;19910;-75
2022/07/18 00:17:24;;;;;;;;;;;;;;;;;;1036541;28;19955;-75
2022/07/18 00:17:54;;;;;;;;;;;;;;;;;;1036636;28;20320;-74
2022/07/18 00:18:25;;;;;;;;;;;;;;;;;;1036123;28;20147;-74
2022/07/18 00:18:57;;;;;;;;;;;;;;;;;;1036467;28;20447;-74
2022/07/18 00:19:27;;;;;;;;;;;;;;;;;;1034201;28;20365;-74
2022/07/18 00:19:57;;;;;;;;;;;;;;;;;;1036326;28;20062;-75
2022/07/18 00:20:29;;;;;;;;;;;;;;;;;;1036595;28;20061;-74
2022/07/18 00:20:59;;;;;;;;;;;;;;;;;;1034655;28;19909;-74
2022/07/18 00:21:29;;;;;;;;;;;;;;;;;;1036483;28;20592;-74
2022/07/18 00:22:00;;;;;;;;;;;;;;;;;;1036624;28;19916;-74
2022/07/18 00:22:31;;;;;;;;;;;;;;;;;;1034608;28;19909;-74
2022/07/18 00:23:01;;;;;;;;;;;;;;;;;;1036184;28;20373;-74
2022/07/18 00:23:31;;;;;;;;;;;;;;;;;;1036171;28;19909;-74
2022/07/18 00:24:01;;;;;;;;;;;;;;;;;;1036229;28;20007;-75
2022/07/18 00:24:32;;;;;;;;;;;;;;;;;;1036274;28;20285;-74
2022/07/18 00:25:02;;;;;;;;;;;;;;;;;;1036405;28;19909;-74
2022/07/18 00:25:32;;;;;;;;;;;;;;;;;;1036441;28;19909;-75
2022/07/18 00:26:02;;;;;;;;;;;;;;;;;;1036459;28;19955;-75
2022/07/18 00:26:33;;;;;;;;;;;;;;;;;;1036574;28;19909;-75
2022/07/18 00:27:04;;;;;;;;;;;;;;;;;;1035587;28;19913;-74
2022/07/18 00:27:34;;;;;;;;;;;;;;;;;;1036482;28;20011;-74
2022/07/18 00:28:04;;;;;;;;;;;;;;;;;;1036571;28;19909;-75
2022/07/18 00:28:35;;;;;;;;;;;;;;;;;;1036403;28;19917;-74
2022/07/18 00:29:05;;;;;;;;;;;;;;;;;;1036231;28;20373;-75
2022/07/18 00:29:39;;;;;;;;;;;;;;;;;;1034067;28;19916;-74
2022/07/18 00:30:09;;;;;;;;;;;;;;;;;;1034059;28;20004;-75
2022/07/18 00:30:39;;;;;;;;;;;;;;;;;;1036535;28;20361;-75
2022/07/18 00:31:09;;;;;;;;;;;;;;;;;;1036520;28;19913;-75
2022/07/18 00:31:39;;;;;;;;;;;;;;;;;;1036457;28;19956;-75
2022/07/18 00:32:10;;;;;;;;;;;;;;;;;;1036489;28;19916;-75
2022/07/18 00:32:40;;;;;;;;;;;;;;;;;;1036673;28;19910;-75
2022/07/18 00:33:10;;;;;;;;;;;;;;;;;;1036081;28;19913;-74
2022/07/18 00:33:41;;;;;;;;;;;;;;;;;;1036285;28;19909;-74
2022/07/18 00:34:11;;;;;;;;;;;;;;;;;;1036252;28;19915;-74
2022/07/18 00:34:41;;;;;;;;;;;;;;;;;;1036287;28;20379;-74
2022/07/18 00:35:11;;;;;;;;;;;;;;;;;;1036526;28;20004;-74
2022/07/18 00:35:42;;;;;;;;;;;;;;;;;;1036545;28;19974;-74
2022/07/18 00:36:12;;;;;;;;;;;;;;;;;;1035859;28;19953;-74
2022/07/18 00:36:42;;;;;;;;;;;;;;;;;;1035683;28;20467;-75
2022/07/18 00:37:13;;;;;;;;;;;;;;;;;;1036086;28;20441;-75
2022/07/18 00:37:43;;;;;;;;;;;;;;;;;;1036324;28;20400;-74
2022/07/18 00:38:13;;;;;;;;;;;;;;;;;;1036018;28;19909;-74
2022/07/18 00:38:44;;;;;;;;;;;;;;;;;;1036165;28;19936;-75
2022/07/18 00:39:14;;;;;;;;;;;;;;;;;;1036264;28;20277;-75
2022/07/18 00:39:44;;;;;;;;;;;;;;;;;;1036361;28;19909;-74
2022/07/18 00:40:14;;;;;;;;;;;;;;;;;;1036156;28;20416;-74
2022/07/18 00:40:45;;;;;;;;;;;;;;;;;;1036744;28;19917;-74
2022/07/18 00:41:15;;;;;;;;;;;;;;;;;;1035880;28;19917;-75
2022/07/18 00:41:45;;;;;;;;;;;;;;;;;;1036339;28;19932;-75
2022/07/18 00:42:16;;;;;;;;;;;;;;;;;;1036171;28;19916;-74
2022/07/18 00:42:46;;;;;;;;;;;;;;;;;;1036318;28;19936;-74
2022/07/18 00:43:16;;;;;;;;;;;;;;;;;;1035945;28;19913;-74
2022/07/18 00:43:46;;;;;;;;;;;;;;;;;;1036109;28;20369;-75
2022/07/18 00:44:17;;;;;;;;;;;;;;;;;;1035359;28;19959;-74
2022/07/18 00:44:47;;;;;;;;;;;;;;;;;;1036328;28;19910;-75
2022/07/18 00:45:17;;;;;;;;;;;;;;;;;;1036415;28;19999;-74
2022/07/18 00:45:47;;;;;;;;;;;;;;;;;;1036172;28;19949;-74
2022/07/18 00:46:18;;;;;;;;;;;;;;;;;;1036062;28;20340;-75
2022/07/18 00:46:48;;;;;;;;;;;;;;;;;;1036321;28;19909;-75
2022/07/18 00:47:18;;;;;;;;;;;;;;;;;;1036023;28;19910;-74
2022/07/18 00:47:51;;;;;;;;;;;;;;;;;;1036667;28;20358;-75
2022/07/18 00:48:21;;;;;;;;;;;;;;;;;;1033476;28;19909;-75
2022/07/18 00:48:52;;;;;;;;;;;;;;;;;;1035437;28;20266;-75
2022/07/18 00:49:22;;;;;;;;;;;;;;;;;;1036364;28;20457;-75
2022/07/18 00:49:52;;;;;;;;;;;;;;;;;;1036038;28;19915;-75
2022/07/18 00:50:22;;;;;;;;;;;;;;;;;;1036173;28;19960;-75
2022/07/18 00:50:53;;;;;;;;;;;;;;;;;;1036277;28;20436;-75
2022/07/18 00:51:23;;;;;;;;;;;;;;;;;;1035983;28;19910;-75
2022/07/18 00:51:53;;;;;;;;;;;;;;;;;;1036548;28;19941;-75
2022/07/18 00:52:23;;;;;;;;;;;;;;;;;;1035386;28;20530;-75
2022/07/18 00:52:54;;;;;;;;;;;;;;;;;;1036089;28;19917;-75
2022/07/18 00:53:24;;;;;;;;;;;;;;;;;;1036177;28;19909;-75
2022/07/18 00:53:54;;;;;;;;;;;;;;;;;;1036152;28;19909;-75
2022/07/18 00:54:25;;;;;;;;;;;;;;;;;;1036181;28;19914;-75
2022/07/18 00:54:55;;;;;;;;;;;;;;;;;;1035150;28;19909;-75
2022/07/18 00:55:26;;;;;;;;;;;;;;;;;;1036074;28;19946;-75
2022/07/18 00:55:56;;;;;;;;;;;;;;;;;;1036045;28;20309;-75
2022/07/18 00:56:26;;;;;;;;;;;;;;;;;;1036183;28;19913;-74
2022/07/18 00:56:56;;;;;;;;;;;;;;;;;;1035471;28;20021;-74
2022/07/18 00:57:26;;;;;;;;;;;;;;;;;;1036018;28;20004;-75
2022/07/18 00:57:57;;;;;;;;;;;;;;;;;;1036215;28;20408;-74
2022/07/18 00:58:27;;;;;;;;;;;;;;;;;;1035790;28;19913;-75
2022/07/18 00:58:57;;;;;;;;;;;;;;;;;;1036318;28;19932;-75
2022/07/18 01:01:42;;;;;;;;;;;;;;;;;;1035221;28;19910;-74
2022/07/18 01:02:09;;;;;;;;;;;;;;;;;;1022777;29;19990;-75
2022/07/18 01:02:39;;;;;;;;;;;;;;;;;;1023908;29;19910;-74
2022/07/18 01:03:10;;;;;;;;;;;;;;;;;;1028483;28;19910;-74
2022/07/18 01:03:40;;;;;;;;;;;;;;;;;;1036485;28;20000;-74
2022/07/18 01:04:10;;;;;;;;;;;;;;;;;;1036322;28;19936;-75
2022/07/18 01:04:41;;;;;;;;;;;;;;;;;;1036162;28;20067;-74
2022/07/18 01:05:11;;;;;;;;;;;;;;;;;;1036443;28;20455;-74
2022/07/18 01:05:41;;;;;;;;;;;;;;;;;;1036399;28;20285;-74
2022/07/18 01:06:11;;;;;;;;;;;;;;;;;;1036244;28;19947;-75
2022/07/18 01:06:42;;;;;;;;;;;;;;;;;;1033910;28;20328;-74
2022/07/18 01:07:12;;;;;;;;;;;;;;;;;;1036045;28;19909;-74
2022/07/18 01:07:42;;;;;;;;;;;;;;;;;;1036148;28;19909;-75
2022/07/18 01:08:12;;;;;;;;;;;;;;;;;;1035886;28;19909;-74
2022/07/18 01:08:43;;;;;;;;;;;;;;;;;;1036495;28;20161;-74
2022/07/18 01:09:13;;;;;;;;;;;;;;;;;;1036304;28;19952;-74
2022/07/18 01:09:43;;;;;;;;;;;;;;;;;;1036505;28;19921;-75
2022/07/18 01:10:13;;;;;;;;;;;;;;;;;;1036335;28;19910;-75
2022/07/18 01:10:44;;;;;;;;;;;;;;;;;;1033844;28;19914;-75
2022/07/18 01:11:14;;;;;;;;;;;;;;;;;;1036215;28;20031;-75
2022/07/18 01:11:44;;;;;;;;;;;;;;;;;;1036442;28;19906;-75
2022/07/18 01:12:14;;;;;;;;;;;;;;;;;;1035889;28;19948;-75
2022/07/18 01:12:45;;;;;;;;;;;;;;;;;;1036189;28;19916;-75
2022/07/18 01:13:15;;;;;;;;;;;;;;;;;;1035683;28;20404;-75
2022/07/18 01:13:45;;;;;;;;;;;;;;;;;;1035222;28;19964;-75
2022/07/18 01:14:15;;;;;;;;;;;;;;;;;;1035936;28;19909;-75
2022/07/18 01:14:46;;;;;;;;;;;;;;;;;;1036204;28;20008;-75
2022/07/18 01:15:16;;;;;;;;;;;;;;;;;;1036257;28;20437;-75
2022/07/18 01:15:46;;;;;;;;;;;;;;;;;;1035412;28;19909;-75
2022/07/18 01:16:16;;;;;;;;;;;;;;;;;;1036258;28;19913;-75
2022/07/18 01:16:47;;;;;;;;;;;;;;;;;;1036479;28;20799;-75
2022/07/18 01:17:17;;;;;;;;;;;;;;;;;;1036246;28;19914;-75
2022/07/18 01:17:49;;;;;;;;;;;;;;;;;;1036506;28;19963;-75
2022/07/18 01:18:19;;;;;;;;;;;;;;;;;;1036203;28;20400;-75
2022/07/18 01:18:49;;;;;;;;;;;;;;;;;;1036473;28;19916;-74
2022/07/18 01:19:19;;;;;;;;;;;;;;;;;;1036221;28;20289;-75
2022/07/18 01:19:50;;;;;;;;;;;;;;;;;;1036481;28;19921;-75
2022/07/18 01:20:20;;;;;;;;;;;;;;;;;;1036198;28;19959;-75
2022/07/18 01:20:50;;;;;;;;;;;;;;;;;;1036426;28;20000;-75
2022/07/18 01:21:20;;;;;;;;;;;;;;;;;;1036205;28;19909;-75
2022/07/18 01:21:51;;;;;;;;;;;;;;;;;;1036541;28;19933;-75
2022/07/18 01:22:21;;;;;;;;;;;;;;;;;;1036251;28;20296;-75
2022/07/18 01:22:51;;;;;;;;;;;;;;;;;;1036465;28;19959;-74
2022/07/18 01:23:21;;;;;;;;;;;;;;;;;;1035432;28;19947;-75
2022/07/18 01:23:52;;;;;;;;;;;;;;;;;;1035862;28;19914;-75
2022/07/18 01:24:22;;;;;;;;;;;;;;;;;;1036159;28;19996;-75
2022/07/18 01:24:52;;;;;;;;;;;;;;;;;;1036516;28;20364;-75
2022/07/18 01:25:22;;;;;;;;;;;;;;;;;;1036249;28;19917;-75
2022/07/18 01:25:53;;;;;;;;;;;;;;;;;;1035971;28;19909;-75
2022/07/18 01:26:23;;;;;;;;;;;;;;;;;;1034700;28;20297;-75
2022/07/18 01:26:53;;;;;;;;;;;;;;;;;;1036189;28;19909;-76
2022/07/18 01:27:23;;;;;;;;;;;;;;;;;;1035902;28;19909;-75
2022/07/18 01:27:55;;;;;;;;;;;;;;;;;;1036292;28;19909;-75
2022/07/18 01:28:25;;;;;;;;;;;;;;;;;;1032864;28;19909;-75
2022/07/18 01:28:55;;;;;;;;;;;;;;;;;;1033992;28;20369;-75
2022/07/18 01:29:26;;;;;;;;;;;;;;;;;;1035647;28;19915;-75
2022/07/18 01:29:56;;;;;;;;;;;;;;;;;;1030585;28;19917;-75
2022/07/18 01:30:26;;;;;;;;;;;;;;;;;;1031733;28;19920;-75
2022/07/18 01:30:57;;;;;;;;;;;;;;;;;;1033888;28;19920;-75
2022/07/18 01:31:27;;;;;;;;;;;;;;;;;;1032169;28;20362;-75
2022/07/18 01:31:57;;;;;;;;;;;;;;;;;;1035579;28;19917;-75
2022/07/18 01:32:27;;;;;;;;;;;;;;;;;;1032917;28;20531;-75
2022/07/18 01:32:58;;;;;;;;;;;;;;;;;;1036463;28;20015;-75
2022/07/18 01:33:28;;;;;;;;;;;;;;;;;;1032427;28;20400;-76
2022/07/18 01:33:58;;;;;;;;;;;;;;;;;;1035834;28;20004;-75
2022/07/18 01:34:28;;;;;;;;;;;;;;;;;;1033471;28;20302;-75
2022/07/18 01:34:59;;;;;;;;;;;;;;;;;;1036050;28;20017;-75
2022/07/18 01:35:29;;;;;;;;;;;;;;;;;;1032440;28;19913;-75
2022/07/18 01:36:00;;;;;;;;;;;;;;;;;;1035995;28;19971;-75
2022/07/18 01:36:30;;;;;;;;;;;;;;;;;;1033514;28;19941;-75
2022/07/18 01:37:00;;;;;;;;;;;;;;;;;;1034734;28;19909;-75
2022/07/18 01:37:31;;;;;;;;;;;;;;;;;;1034503;28;20472;-75
2022/07/18 01:38:01;;;;;;;;;;;;;;;;;;1035459;28;19942;-75
2022/07/18 01:38:31;;;;;;;;;;;;;;;;;;1035024;28;19909;-75
2022/07/18 01:39:01;;;;;;;;;;;;;;;;;;1035352;28;20300;-75
2022/07/18 01:39:32;;;;;;;;;;;;;;;;;;1034249;28;20000;-75
2022/07/18 01:40:02;;;;;;;;;;;;;;;;;;1035460;28;19959;-75
2022/07/18 01:40:32;;;;;;;;;;;;;;;;;;1034907;28;19920;-75
2022/07/18 01:41:03;;;;;;;;;;;;;;;;;;1035344;28;19916;-75
2022/07/18 01:41:33;;;;;;;;;;;;;;;;;;1035137;28;19910;-75
2022/07/18 01:42:03;;;;;;;;;;;;;;;;;;1034945;28;20336;-75
2022/07/18 01:42:33;;;;;;;;;;;;;;;;;;1035088;28;20404;-75
2022/07/18 01:43:04;;;;;;;;;;;;;;;;;;1034839;28;19961;-75
2022/07/18 01:43:34;;;;;;;;;;;;;;;;;;1034855;28;20361;-75
2022/07/18 01:44:04;;;;;;;;;;;;;;;;;;1028096;28;19914;-75
2022/07/18 01:44:34;;;;;;;;;;;;;;;;;;1030920;28;20381;-75
2022/07/18 01:45:05;;;;;;;;;;;;;;;;;;1029210;28;19917;-75
2022/07/18 01:45:35;;;;;;;;;;;;;;;;;;1028655;28;20333;-75
2022/07/18 01:46:05;;;;;;;;;;;;;;;;;;1031953;28;19920;-76
2022/07/18 01:46:35;;;;;;;;;;;;;;;;;;1030734;28;19960;-75
2022/07/18 01:47:06;;;;;;;;;;;;;;;;;;1030522;28;20003;-75
2022/07/18 01:47:36;;;;;;;;;;;;;;;;;;1033982;28;20419;-76
2022/07/18 01:48:06;;;;;;;;;;;;;;;;;;1031734;28;19910;-75
2022/07/18 01:48:36;;;;;;;;;;;;;;;;;;1035655;28;19913;-75
2022/07/18 01:49:07;;;;;;;;;;;;;;;;;;1034052;28;19917;-75
2022/07/18 01:49:37;;;;;;;;;;;;;;;;;;1034624;28;19914;-75
2022/07/18 01:50:07;;;;;;;;;;;;;;;;;;1033049;28;19936;-75
2022/07/18 01:50:37;;;;;;;;;;;;;;;;;;1033499;28;19910;-75
2022/07/18 01:51:10;;;;;;;;;;;;;;;;;;1033726;28;19996;-75
2022/07/18 01:51:40;;;;;;;;;;;;;;;;;;1035028;28;19917;-75
2022/07/18 01:52:10;;;;;;;;;;;;;;;;;;1032719;28;20295;-76
2022/07/18 01:52:41;;;;;;;;;;;;;;;;;;1034685;28;19968;-75
2022/07/18 01:53:11;;;;;;;;;;;;;;;;;;1034442;28;20308;-75
2022/07/18 01:53:41;;;;;;;;;;;;;;;;;;1035510;28;19913;-75
2022/07/18 01:54:11;;;;;;;;;;;;;;;;;;1034604;28;19924;-75
2022/07/18 01:54:42;;;;;;;;;;;;;;;;;;1031530;28;20144;-75
2022/07/18 01:55:12;;;;;;;;;;;;;;;;;;1031632;28;19917;-75
2022/07/18 01:55:42;;;;;;;;;;;;;;;;;;1034719;28;19960;-75
2022/07/18 01:56:12;;;;;;;;;;;;;;;;;;1035342;28;19913;-75
2022/07/18 01:56:43;;;;;;;;;;;;;;;;;;1034238;28;20033;-75
2022/07/18 01:57:13;;;;;;;;;;;;;;;;;;1029730;28;19914;-76
2022/07/18 01:57:43;;;;;;;;;;;;;;;;;;1030336;28;19936;-75
2022/07/18 01:58:13;;;;;;;;;;;;;;;;;;1033365;28;19913;-75
2022/07/18 01:58:44;;;;;;;;;;;;;;;;;;1034449;28;20422;-75
2022/07/18 01:59:14;;;;;;;;;;;;;;;;;;1032885;28;19910;-75
2022/07/18 01:59:44;;;;;;;;;;;;;;;;;;1033266;28;20071;-75
2022/07/18 02:00:14;;;;;;;;;;;;;;;;;;1033573;28;20227;-75
2022/07/18 02:00:45;;;;;;;;;;;;;;;;;;1033016;28;19937;-75
2022/07/18 02:01:15;;;;;;;;;;;;;;;;;;1034763;28;19940;-75
2022/07/18 02:01:45;;;;;;;;;;;;;;;;;;1034326;28;20460;-75
2022/07/18 02:02:15;;;;;;;;;;;;;;;;;;1031591;28;19913;-75
2022/07/18 02:02:46;;;;;;;;;;;;;;;;;;1033832;28;20356;-75
2022/07/18 02:03:16;;;;;;;;;;;;;;;;;;1032902;28;19963;-75
2022/07/18 02:03:46;;;;;;;;;;;;;;;;;;1035324;28;19913;-75
2022/07/18 02:04:16;;;;;;;;;;;;;;;;;;1032418;28;21044;-75
2022/07/18 02:04:59;;;;;;;;;;;;;;;;;;1035106;28;19917;-75
2022/07/18 02:05:29;;;;;;;;;;;;;;;;;;1031588;28;19910;-75
2022/07/18 02:05:59;;;;;;;;;;;;;;;;;;1030530;28;19936;-75
2022/07/18 02:06:30;;;;;;;;;;;;;;;;;;1031163;28;20401;-75
2022/07/18 02:07:00;;;;;;;;;;;;;;;;;;1015136;28;19926;-75
2022/07/18 02:07:30;;;;;;;;;;;;;;;;;;1024503;28;19914;-75
2022/07/18 02:08:01;;;;;;;;;;;;;;;;;;1024537;28;19997;-75
2022/07/18 02:08:31;;;;;;;;;;;;;;;;;;1024706;28;20053;-75
2022/07/18 02:09:01;;;;;;;;;;;;;;;;;;1029212;28;19914;-75
2022/07/18 02:09:31;;;;;;;;;;;;;;;;;;1027992;28;19913;-75
2022/07/18 02:10:02;;;;;;;;;;;;;;;;;;1033921;28;20432;-75
2022/07/18 02:10:32;;;;;;;;;;;;;;;;;;1034185;28;19996;-75
2022/07/18 02:11:02;;;;;;;;;;;;;;;;;;1034503;28;19999;-75
2022/07/18 02:11:33;;;;;;;;;;;;;;;;;;1033166;28;19956;-75
2022/07/18 02:12:03;;;;;;;;;;;;;;;;;;1034123;28;20443;-75
2022/07/18 02:12:33;;;;;;;;;;;;;;;;;;1033650;28;19909;-75
2022/07/18 02:13:03;;;;;;;;;;;;;;;;;;1033836;28;19913;-75
2022/07/18 02:13:34;;;;;;;;;;;;;;;;;;1034083;28;20007;-75
2022/07/18 02:14:04;;;;;;;;;;;;;;;;;;1035532;28;19910;-75
2022/07/18 02:14:34;;;;;;;;;;;;;;;;;;1035401;28;20007;-75
2022/07/18 02:15:04;;;;;;;;;;;;;;;;;;1031882;28;20012;-75
2022/07/18 02:15:35;;;;;;;;;;;;;;;;;;1034354;28;19909;-75
2022/07/18 02:16:05;;;;;;;;;;;;;;;;;;1032816;28;19909;-75
2022/07/18 02:16:35;;;;;;;;;;;;;;;;;;1034830;28;19910;-75
2022/07/18 02:17:05;;;;;;;;;;;;;;;;;;1032165;28;19909;-74
2022/07/18 02:17:36;;;;;;;;;;;;;;;;;;1033145;28;20004;-75
2022/07/18 02:18:06;;;;;;;;;;;;;;;;;;1032781;28;19917;-75
2022/07/18 02:18:36;;;;;;;;;;;;;;;;;;1031928;28;19940;-75
2022/07/18 02:19:06;;;;;;;;;;;;;;;;;;1030438;28;19914;-75
2022/07/18 02:19:37;;;;;;;;;;;;;;;;;;1031611;28;20065;-75
2022/07/18 02:20:07;;;;;;;;;;;;;;;;;;1031014;28;19988;-75
2022/07/18 02:20:38;;;;;;;;;;;;;;;;;;1035220;28;19916;-76
2022/07/18 02:21:08;;;;;;;;;;;;;;;;;;1032718;28;20019;-75
2022/07/18 02:21:38;;;;;;;;;;;;;;;;;;1034455;28;20585;-75
2022/07/18 02:22:09;;;;;;;;;;;;;;;;;;1033208;28;19909;-75
2022/07/18 02:22:39;;;;;;;;;;;;;;;;;;1034379;28;20000;-75
2022/07/18 02:23:09;;;;;;;;;;;;;;;;;;1032518;28;19941;-75
2022/07/18 02:23:40;;;;;;;;;;;;;;;;;;1034634;28;20160;-75
2022/07/18 02:24:10;;;;;;;;;;;;;;;;;;1032902;28;19910;-75
2022/07/18 02:24:40;;;;;;;;;;;;;;;;;;1034671;28;19909;-76
2022/07/18 02:25:10;;;;;;;;;;;;;;;;;;1026412;28;20380;-76
2022/07/18 02:25:41;;;;;;;;;;;;;;;;;;1027517;28;19924;-74
2022/07/18 02:26:11;;;;;;;;;;;;;;;;;;1027410;28;20004;-75
2022/07/18 02:26:41;;;;;;;;;;;;;;;;;;1033903;28;19913;-75
2022/07/18 02:27:11;;;;;;;;;;;;;;;;;;1030315;28;19964;-76
2022/07/18 02:27:42;;;;;;;;;;;;;;;;;;1030046;28;20687;-75
2022/07/18 02:28:12;;;;;;;;;;;;;;;;;;1029086;28;19910;-76
2022/07/18 02:28:42;;;;;;;;;;;;;;;;;;1032831;28;19913;-76
2022/07/18 02:29:12;;;;;;;;;;;;;;;;;;1035591;28;19909;-75
2022/07/18 02:29:43;;;;;;;;;;;;;;;;;;1035263;28;20762;-76
2022/07/18 02:30:13;;;;;;;;;;;;;;;;;;1035097;28;19920;-75
2022/07/18 02:30:43;;;;;;;;;;;;;;;;;;1035508;28;19916;-75
2022/07/18 02:31:13;;;;;;;;;;;;;;;;;;1032585;28;19947;-76
2022/07/18 02:31:44;;;;;;;;;;;;;;;;;;1034197;28;20465;-75
2022/07/18 02:32:14;;;;;;;;;;;;;;;;;;1035305;28;19929;-75
2022/07/18 02:32:44;;;;;;;;;;;;;;;;;;1031082;28;19910;-75
2022/07/18 02:33:14;;;;;;;;;;;;;;;;;;1030707;28;19913;-75
2022/07/18 02:33:45;;;;;;;;;;;;;;;;;;1035027;28;19997;-75
2022/07/18 02:34:15;;;;;;;;;;;;;;;;;;1031851;28;19932;-76
2022/07/18 02:34:46;;;;;;;;;;;;;;;;;;1031686;28;19921;-75
2022/07/18 02:35:17;;;;;;;;;;;;;;;;;;1030090;28;20000;-76
2022/07/18 02:35:47;;;;;;;;;;;;;;;;;;1026328;28;20479;-76
2022/07/18 02:36:17;;;;;;;;;;;;;;;;;;1024005;28;19960;-76
2022/07/18 02:36:50;;;;;;;;;;;;;;;;;;1027974;28;20353;-76
2022/07/18 02:37:20;;;;;;;;;;;;;;;;;;1029391;28;19957;-75
2022/07/18 02:37:50;;;;;;;;;;;;;;;;;;1032635;28;19913;-76
2022/07/18 02:38:21;;;;;;;;;;;;;;;;;;1035133;28;19909;-75
2022/07/18 02:38:51;;;;;;;;;;;;;;;;;;1035803;28;19914;-75
2022/07/18 02:39:21;;;;;;;;;;;;;;;;;;1034776;28;19961;-76
2022/07/18 02:39:52;;;;;;;;;;;;;;;;;;1035630;28;19917;-76
2022/07/18 02:40:22;;;;;;;;;;;;;;;;;;1036541;28;20260;-75
2022/07/18 02:40:52;;;;;;;;;;;;;;;;;;1036449;28;19951;-75
2022/07/18 02:41:22;;;;;;;;;;;;;;;;;;1034571;28;19909;-75
2022/07/18 02:41:53;;;;;;;;;;;;;;;;;;1036235;28;20357;-75
2022/07/18 02:42:23;;;;;;;;;;;;;;;;;;1034823;28;19913;-75
2022/07/18 02:42:53;;;;;;;;;;;;;;;;;;1036339;28;20006;-75
2022/07/18 02:43:23;;;;;;;;;;;;;;;;;;1035163;28;20432;-78
2022/07/18 02:43:54;;;;;;;;;;;;;;;;;;1034941;28;20233;-74
2022/07/18 02:44:24;;;;;;;;;;;;;;;;;;1036015;28;20440;-77
2022/07/18 02:44:54;;;;;;;;;;;;;;;;;;1033822;28;19996;-75
2022/07/18 02:45:24;;;;;;;;;;;;;;;;;;1034069;28;19952;-75
2022/07/18 02:45:55;;;;;;;;;;;;;;;;;;1031121;28;19913;-75
2022/07/18 02:46:25;;;;;;;;;;;;;;;;;;1032274;28;20263;-75
2022/07/18 02:46:55;;;;;;;;;;;;;;;;;;1030765;28;19953;-75
2022/07/18 02:47:25;;;;;;;;;;;;;;;;;;1029824;28;20886;-75
2022/07/18 02:47:56;;;;;;;;;;;;;;;;;;1028597;28;20348;-76
2022/07/18 02:48:26;;;;;;;;;;;;;;;;;;1031084;28;19962;-75
2022/07/18 02:48:56;;;;;;;;;;;;;;;;;;1032829;28;19913;-75
2022/07/18 02:49:26;;;;;;;;;;;;;;;;;;1032250;28;19913;-75
2022/07/18 02:49:57;;;;;;;;;;;;;;;;;;1032209;28;19913;-74
2022/07/18 02:50:27;;;;;;;;;;;;;;;;;;1032096;28;19917;-75
2022/07/18 02:50:57;;;;;;;;;;;;;;;;;;1035756;28;20003;-76
2022/07/18 02:51:27;;;;;;;;;;;;;;;;;;1033085;28;20330;-75
2022/07/18 02:51:58;;;;;;;;;;;;;;;;;;1033600;28;20008;-75
2022/07/18 02:52:28;;;;;;;;;;;;;;;;;;1029524;28;20096;-75
2022/07/18 02:52:58;;;;;;;;;;;;;;;;;;1034487;28;19956;-75
2022/07/18 02:53:28;;;;;;;;;;;;;;;;;;1031940;28;19920;-74
2022/07/18 02:53:59;;;;;;;;;;;;;;;;;;1032861;28;19913;-78
2022/07/18 02:54:29;;;;;;;;;;;;;;;;;;1032089;28;19961;-75
2022/07/18 02:55:01;;;;;;;;;;;;;;;;;;1030103;28;19933;-75
2022/07/18 02:55:31;;;;;;;;;;;;;;;;;;1031420;28;19921;-75
2022/07/18 02:56:01;;;;;;;;;;;;;;;;;;1033691;28;19920;-75
2022/07/18 02:56:31;;;;;;;;;;;;;;;;;;1032501;28;19913;-75
2022/07/18 02:57:02;;;;;;;;;;;;;;;;;;1033114;28;19918;-75
2022/07/18 02:57:32;;;;;;;;;;;;;;;;;;1034331;28;19975;-75
2022/07/18 02:58:02;;;;;;;;;;;;;;;;;;1031201;28;19920;-75
2022/07/18 02:58:32;;;;;;;;;;;;;;;;;;1031145;28;19945;-75
2022/07/18 02:59:03;;;;;;;;;;;;;;;;;;1027102;28;20039;-75
2022/07/18 02:59:33;;;;;;;;;;;;;;;;;;1034028;28;19917;-74
2022/07/18 03:00:03;;;;;;;;;;;;;;;;;;1031451;28;20988;-75
2022/07/18 03:00:33;;;;;;;;;;;;;;;;;;1034873;28;19913;-75
2022/07/18 03:01:04;;;;;;;;;;;;;;;;;;1031771;28;19956;-75
2022/07/18 03:01:34;;;;;;;;;;;;;;;;;;1031655;28;20388;-75
2022/07/18 03:02:04;;;;;;;;;;;;;;;;;;1030261;28;19914;-75
2022/07/18 03:02:34;;;;;;;;;;;;;;;;;;1024350;28;19910;-74
2022/07/18 03:03:05;;;;;;;;;;;;;;;;;;1027686;28;19961;-76
2022/07/18 03:03:35;;;;;;;;;;;;;;;;;;1031972;28;19910;-75
2022/07/18 03:04:05;;;;;;;;;;;;;;;;;;1030181;28;19917;-75
2022/07/18 03:04:35;;;;;;;;;;;;;;;;;;1035483;28;19917;-78
2022/07/18 03:05:06;;;;;;;;;;;;;;;;;;1034861;28;19909;-75
2022/07/18 03:05:36;;;;;;;;;;;;;;;;;;1035415;28;20294;-75
2022/07/18 03:06:06;;;;;;;;;;;;;;;;;;1032692;28;19921;-75
2022/07/18 03:06:36;;;;;;;;;;;;;;;;;;1035720;28;20396;-75
2022/07/18 03:07:07;;;;;;;;;;;;;;;;;;1027239;28;19948;-75
2022/07/18 03:07:37;;;;;;;;;;;;;;;;;;1029463;28;19918;-75
2022/07/18 03:08:07;;;;;;;;;;;;;;;;;;1030585;28;20597;-76
2022/07/18 03:08:37;;;;;;;;;;;;;;;;;;1035985;28;19913;-75
2022/07/18 03:09:08;;;;;;;;;;;;;;;;;;1034547;28;19910;-75
2022/07/18 03:09:38;;;;;;;;;;;;;;;;;;1031439;28;19928;-74
2022/07/18 03:10:08;;;;;;;;;;;;;;;;;;1034926;28;19917;-75
2022/07/18 03:10:38;;;;;;;;;;;;;;;;;;1035445;28;19910;-76
2022/07/18 03:11:09;;;;;;;;;;;;;;;;;;1034003;28;19916;-76
2022/07/18 03:11:39;;;;;;;;;;;;;;;;;;1032097;28;19914;-75
2022/07/18 03:12:09;;;;;;;;;;;;;;;;;;1033309;28;19917;-77
2022/07/18 03:12:40;;;;;;;;;;;;;;;;;;1034562;28;19909;-75
2022/07/18 03:13:10;;;;;;;;;;;;;;;;;;1022741;28;20076;-75
2022/07/18 03:13:41;;;;;;;;;;;;;;;;;;1032971;28;20007;-75
2022/07/18 03:14:11;;;;;;;;;;;;;;;;;;1032719;28;19913;-75
2022/07/18 03:14:41;;;;;;;;;;;;;;;;;;1034181;28;19913;-75
2022/07/18 03:15:12;;;;;;;;;;;;;;;;;;1030948;28;19925;-75
2022/07/18 03:15:42;;;;;;;;;;;;;;;;;;1032556;28;19948;-75
2022/07/18 03:16:12;;;;;;;;;;;;;;;;;;1027022;28;19914;-75
2022/07/18 03:16:43;;;;;;;;;;;;;;;;;;1033532;28;20032;-76
2022/07/18 03:17:13;;;;;;;;;;;;;;;;;;1032384;28;19960;-75
2022/07/18 03:17:43;;;;;;;;;;;;;;;;;;1032817;28;19968;-76
2022/07/18 03:18:14;;;;;;;;;;;;;;;;;;1029679;28;19920;-75
2022/07/18 03:18:44;;;;;;;;;;;;;;;;;;1034692;28;19971;-76
2022/07/18 03:19:14;;;;;;;;;;;;;;;;;;1035034;28;19941;-75
2022/07/18 03:19:44;;;;;;;;;;;;;;;;;;1032025;28;19944;-75
2022/07/18 03:20:15;;;;;;;;;;;;;;;;;;1033568;28;19918;-77
2022/07/18 03:20:45;;;;;;;;;;;;;;;;;;1032547;28;20037;-77
2022/07/18 03:21:15;;;;;;;;;;;;;;;;;;1034135;28;19913;-77
2022/07/18 03:21:45;;;;;;;;;;;;;;;;;;1028373;28;19921;-77
2022/07/18 03:22:16;;;;;;;;;;;;;;;;;;1034553;28;20285;-77
2022/07/18 03:22:46;;;;;;;;;;;;;;;;;;1035141;28;19913;-77
2022/07/18 03:23:16;;;;;;;;;;;;;;;;;;1032874;28;19914;-77
2022/07/18 03:23:46;;;;;;;;;;;;;;;;;;1034418;28;20265;-77
2022/07/18 03:24:19;;;;;;;;;;;;;;;;;;1032325;28;19992;-77
2022/07/18 03:24:50;;;;;;;;;;;;;;;;;;1034947;28;21126;-77
2022/07/18 03:25:20;;;;;;;;;;;;;;;;;;1034367;28;19944;-76
2022/07/18 03:25:50;;;;;;;;;;;;;;;;;;1031764;28;19924;-75
2022/07/18 03:26:21;;;;;;;;;;;;;;;;;;1030662;28;21069;-77
2022/07/18 03:26:51;;;;;;;;;;;;;;;;;;1030480;28;20370;-77
2022/07/18 03:27:21;;;;;;;;;;;;;;;;;;1026787;28;20353;-78
2022/07/18 03:27:51;;;;;;;;;;;;;;;;;;1022917;28;19929;-77
2022/07/18 03:28:22;;;;;;;;;;;;;;;;;;1026250;28;20345;-77
2022/07/18 03:28:52;;;;;;;;;;;;;;;;;;1027815;28;20040;-77
2022/07/18 03:29:22;;;;;;;;;;;;;;;;;;1029392;28;20325;-77